| time (UTC) | temp C | wind direction | speed KPH | gust KPH | rain 1hr cm | rain 24hr cm | rain mn cm | humidity % | barometer mb |
| 20260505223011 | 23 | 251 | 24.1 | 37.0 | 0.00 | 0.18 | 0.18 | 33 | 1005.5 |
| 20260505221511 | 23 | 247 | 22.5 | 41.8 | 0.00 | 0.18 | 0.18 | 33 | 1005.6 |
| 20260505220024 | 23 | 246 | 17.7 | 38.6 | 0.00 | 0.18 | 0.18 | 29 | 1005.6 |
| 20260505214513 | 24 | 233 | 22.5 | 37.0 | 0.00 | 0.18 | 0.18 | 28 | 1005.6 |
| 20260505213008 | 24 | 252 | 17.7 | 35.4 | 0.00 | 0.18 | 0.18 | 27 | 1005.6 |
| 20260505211507 | 23 | 206 | 20.9 | 38.6 | 0.00 | 0.18 | 0.18 | 25 | 1005.8 |
| 20260505210007 | 24 | 190 | 19.3 | 33.8 | 0.00 | 0.18 | 0.18 | 27 | 1005.9 |
| 20260505204505 | 23 | 232 | 16.1 | 40.2 | 0.00 | 0.18 | 0.18 | 29 | 1005.8 |
| 20260505203100 | 23 | 225 | 22.5 | 37.0 | 0.00 | 0.18 | 0.18 | 34 | 1006.2 |
| 20260505201607 | 22 | 268 | 17.7 | 43.5 | 0.00 | 0.18 | 0.18 | 37 | 1006.3 |
| 20260505200056 | 23 | 208 | 14.5 | 38.6 | 0.00 | 0.18 | 0.18 | 35 | 1006.1 |
| 20260505194555 | 23 | 211 | 24.1 | 41.8 | 0.00 | 0.18 | 0.18 | 36 | 1005.9 |
| 20260505193052 | 22 | 239 | 6.4 | 17.7 | 0.00 | 0.18 | 0.18 | 46 | 1006.2 |
| 20260505191555 | 21 | 317 | 8.0 | 16.1 | 0.00 | 0.18 | 0.18 | 50 | 1006.5 |
| 20260505190058 | 20 | 79 | 0.0 | 8.0 | 0.00 | 0.18 | 0.18 | 52 | 1006.8 |
| 20260505184554 | 20 | 296 | 4.8 | 14.5 | 0.00 | 0.18 | 0.18 | 55 | 1007.3 |
| 20260505183049 | 20 | 217 | 4.8 | 12.9 | 0.00 | 0.18 | 0.18 | 51 | 1007.5 |
| 20260505181539 | 20 | 157 | 3.2 | 11.3 | 0.00 | 0.18 | 0.18 | 54 | 1007.4 |
| 20260505180041 | 19 | 264 | 0.0 | 9.7 | 0.00 | 0.18 | 0.18 | 60 | 1007.6 |
| 20260505174541 | 19 | 205 | 0.0 | 6.4 | 0.00 | 0.18 | 0.18 | 57 | 1007.7 |
| 20260505173040 | 19 | 219 | 0.0 | 3.2 | 0.00 | 0.18 | 0.18 | 61 | 1007.9 |
| 20260505171540 | 18 | 149 | 0.0 | 9.7 | 0.00 | 0.18 | 0.18 | 62 | 1007.9 |
| 20260505170033 | 18 | 104 | 3.2 | 8.0 | 0.00 | 0.18 | 0.18 | 63 | 1007.9 |
| 20260505164535 | 18 | 42 | 1.6 | 9.7 | 0.00 | 0.18 | 0.18 | 64 | 1007.9 |
| 20260505163030 | 18 | 65 | 0.0 | 6.4 | 0.00 | 0.18 | 0.18 | 68 | 1008.0 |
| 20260505161524 | 17 | 65 | 0.0 | 8.0 | 0.00 | 0.18 | 0.18 | 69 | 1008.0 |
| 20260505153028 | 16 | 82 | 1.6 | 6.4 | 0.00 | 0.18 | 0.18 | 77 | 1008.1 |
| 20260505151522 | 15 | 141 | 1.6 | 4.8 | 0.00 | 0.18 | 0.18 | 82 | 1008.0 |
| 20260505124515 | 13 | 134 | 0.0 | 1.6 | 0.05 | 0.15 | 0.15 | 89 | 1007.3 |
| 20260505123011 | 13 | 109 | 0.0 | 8.0 | 0.05 | 0.13 | 0.13 | 88 | 1006.8 |
| 20260505121512 | 12 | 81 | 3.2 | 6.4 | 0.05 | 0.13 | 0.13 | 88 | 1006.4 |
| 20260505120008 | 12 | 78 | 1.6 | 8.0 | 0.05 | 0.13 | 0.13 | 87 | 1006.5 |
| 20260505114506 | 13 | 104 | 0.0 | 8.0 | 0.05 | 0.10 | 0.10 | 86 | 1007.1 |
| 20260505113007 | 13 | 103 | 3.2 | 12.9 | 0.03 | 0.08 | 0.08 | 85 | 1006.9 |
| 20260505111507 | 13 | 90 | 1.6 | 11.3 | 0.03 | 0.08 | 0.08 | 84 | 1007.1 |
| 20260505101552 | 14 | 93 | 1.6 | 4.8 | 0.05 | 0.05 | 0.05 | 82 | 1007.6 |
| 20260505100049 | 14 | 102 | 0.0 | 3.2 | 0.03 | 0.03 | 0.03 | 80 | 1007.9 |
| 20260505094550 | 14 | 77 | 1.6 | 8.0 | 0.03 | 0.03 | 0.03 | 79 | 1008.1 |
| 20260505093047 | 15 | 88 | 1.6 | 6.4 | 0.03 | 0.03 | 0.03 | 74 | 1008.7 |
| 20260505091546 | 15 | 70 | 0.0 | 3.2 | 0.00 | 0.00 | 0.00 | 73 | 1009.0 |
| 20260505090048 | 16 | 13 | 0.0 | 0.0 | 0.00 | 0.00 | 0.00 | 66 | 1009.3 |
| 20260505084536 | 16 | 13 | 0.0 | 8.0 | 0.00 | 0.00 | 0.00 | 65 | 1009.5 |
| 20260505083034 | 16 | 265 | 0.0 | 3.2 | 0.00 | 0.00 | 0.00 | 61 | 1009.5 |
| 20260505081542 | 16 | 217 | 8.0 | 14.5 | 0.00 | 0.00 | 0.00 | 56 | 1009.6 |
| 20260505080046 | 16 | 286 | 0.0 | 8.0 | 0.00 | 0.00 | 0.00 | 64 | 1009.8 |
| 20260505074531 | 16 | 273 | 3.2 | 16.1 | 0.00 | 0.00 | 0.00 | 65 | 1009.6 |
| 20260505073041 | 16 | 244 | 8.0 | 17.7 | 0.00 | 0.00 | 0.00 | 67 | 1009.8 |
| 20260505071529 | 16 | 282 | 0.0 | 14.5 | 0.00 | 0.00 | 0.00 | 66 | 1009.6 |
| 20260505070024 | 16 | 252 | 11.3 | 25.7 | 0.00 | 0.00 | 0.00 | 64 | 1009.1 |
| 20260505064522 | 16 | 265 | 12.9 | 24.1 | 0.00 | 0.00 | 0.00 | 63 | 1009.1 |
| 20260505063021 | 17 | 230 | 12.9 | 33.8 | 0.00 | 0.00 | 0.00 | 59 | 1009.1 |
| 20260505061521 | 17 | 252 | 14.5 | 29.0 | 0.00 | 0.00 | 0.00 | 59 | 1009.3 |
| 20260505060024 | 17 | 234 | 11.3 | 29.0 | 0.00 | 0.00 | 0.00 | 58 | 1009.0 |
| 20260505054522 | 17 | 246 | 1.6 | 11.3 | 0.00 | 0.00 | 0.00 | 52 | 1009.0 |
| 20260505053021 | 17 | 207 | 3.2 | 14.5 | 0.00 | 0.00 | 0.00 | 53 | 1009.2 |
| 20260505051522 | 17 | 50 | 6.4 | 14.5 | 0.00 | 0.00 | 0.00 | 54 | 1009.0 |
| 20260505041530 | 16 | 117 | 1.6 | 8.0 | 0.00 | 0.00 | 0.00 | 54 | 1009.4 |
| 20260505040014 | 16 | 156 | 0.0 | 1.6 | 0.00 | 0.00 | 0.00 | 55 | 1009.0 |
| 20260505034513 | 16 | 103 | 0.0 | 11.3 | 0.00 | 0.00 | 0.00 | 55 | 1009.2 |
| 20260505033012 | 16 | 250 | 6.4 | 24.1 | 0.00 | 0.00 | 0.00 | 55 | 1008.7 |
| 20260505031516 | 16 | 304 | 12.9 | 29.0 | 0.00 | 0.00 | 0.00 | 59 | 1008.8 |
| 20260505030010 | 16 | 315 | 14.5 | 32.2 | 0.00 | 0.00 | 0.00 | 58 | 1008.4 |
| 20260505024508 | 16 | 311 | 20.9 | 37.0 | 0.00 | 0.00 | 0.00 | 53 | 1008.5 |
| 20260505023008 | 17 | 272 | 16.1 | 41.8 | 0.00 | 0.00 | 0.00 | 53 | 1008.3 |
| 20260505021509 | 17 | 231 | 12.9 | 33.8 | 0.00 | 0.00 | 0.00 | 53 | 1008.1 |
| 20260505020006 | 17 | 271 | 16.1 | 32.2 | 0.00 | 0.00 | 0.00 | 54 | 1008.5 |
| 20260505014504 | 18 | 262 | 17.7 | 33.8 | 0.00 | 0.00 | 0.00 | 48 | 1007.7 |
| 20260505013005 | 18 | 268 | 12.9 | 25.7 | 0.00 | 0.00 | 0.00 | 46 | 1007.1 |
| 20260505011502 | 18 | 273 | 12.9 | 33.8 | 0.00 | 0.00 | 0.00 | 46 | 1007.4 |
| 20260505010100 | 19 | 287 | 9.7 | 25.7 | 0.00 | 0.00 | 0.00 | 41 | 1007.7 |
| 20260505004601 | 20 | 267 | 11.3 | 22.5 | 0.00 | 0.00 | 0.00 | 38 | 1008.1 |
| 20260505003101 | 20 | 276 | 14.5 | 29.0 | 0.00 | 0.00 | 0.00 | 36 | 1008.0 |
| 20260505001631 | 21 | 256 | 16.1 | 38.6 | 0.00 | 0.00 | 0.00 | 33 | 1008.1 |
| 20260505000137 | 23 | 282 | 12.9 | 30.6 | 0.00 | 0.00 | 0.00 | 26 | 1007.0 |
| 20260504234612 | 23 | 292 | 12.9 | 22.5 | 0.00 | 0.00 | 0.00 | 23 | 1007.1 |
| 20260504233106 | 23 | 276 | 16.1 | 37.0 | 0.00 | 0.00 | 0.00 | 21 | 1007.5 |
| 20260504231555 | 24 | 235 | 19.3 | 40.2 | 0.00 | 0.00 | 0.00 | 20 | 1007.1 |
| 20260504230055 | 25 | 216 | 17.7 | 33.8 | 0.00 | 0.00 | 0.00 | 19 | 1006.6 |
| 20260504224608 | 25 | 225 | 19.3 | 35.4 | 0.00 | 0.00 | 0.00 | 19 | 1006.3 |